Flight Track Log - Related Links

Times and Time Zones

All times are in EDT time to prevent confusion due to time zone crossing. See the SKW5510 flight status page for this flight to view local times or setup timezone preferences in your user account.

Time Position Orientation Groundspeed Altitude Reporting Facility
EDT Latitude Longitude Course Direction KTS MPH feet Rate Location/Type
Tue 02:29:03 PM 39.8667 -104.5500 99° East 212 244 7,800  Level Denver TRACON
Tue 02:30:03 PM 39.8500 -104.4667 105° East 266 306 9,500 1,839 Climbing Denver TRACON
Tue 02:31:00 PM 39.7667 -103.9986 90° East  Level FlightAware Approximate
Tue 02:31:07 PM 39.8281 -104.3550 104° East 298 343 11,600  Level Denver Center
Tue 02:32:00 PM 39.7500 -103.8337 90° East  Level FlightAware Approximate
Tue 02:32:09 PM 39.8100 -104.2244 100° East 340 391 13,600  Level Denver Center
Tue 02:33:00 PM 39.7333 -103.6677 90° East  Level FlightAware Approximate
Tue 02:33:11 PM 39.7917 -104.0975 101° East 359 413 15,500  Level Denver Center
Tue 02:34:00 PM 39.7177 -103.4998 99° East  Level FlightAware Approximate
Tue 02:34:13 PM 39.7719 -103.9653 101° East 370 426 17,400  Level Denver Center
Tue 02:35:15 PM 39.7517 -103.8189 100° East 383 441 18,700 1,210 Climbing Denver Center
Tue 02:36:17 PM 39.7358 -103.6919 99° East 386 444 19,900 1,403 Climbing Denver Center
Tue 02:37:19 PM 39.7233 -103.5178 95° East 410 472 21,600 1,403 Climbing Denver Center
Tue 02:38:21 PM 39.7108 -103.3667 96° East 417 480 22,800 1,113 Climbing Denver Center
Tue 02:39:23 PM 39.6992 -103.2103 95° East 429 494 23,900 1,024 Climbing Denver Center
Tue 02:40:24 PM 39.6861 -103.0500 96° East 440 506 24,900 683 Climbing Denver Center
Tue 02:41:26 PM 39.6717 -102.8836 96° East 459 528 25,300 629 Climbing Denver Center
Tue 02:42:28 PM 39.6564 -102.7053 96° East 472 543 26,200 706 Climbing Denver Center
Tue 02:43:42 PM 39.6411 -102.5406 97° East 478 550 26,900 662 Climbing Denver Center
Tue 02:44:44 PM 39.6219 -102.3161 96° East 492 566 27,700 823 Climbing Denver Center
Tue 02:45:46 PM 39.6050 -102.1194 96° East 493 567 28,600 706 Climbing Denver Center
Tue 02:47:00 PM 39.5872 -101.9222 97° East 494 568 29,300 574 Climbing Denver Center
Tue 02:48:02 PM 39.5708 -101.7231 96° East 499 574 29,900 532 Climbing Denver Center
Tue 02:49:04 PM 39.5567 -101.5508 96° East 502 578 30,400 532 Climbing Denver Center
Tue 02:50:06 PM 39.5217 -101.3567 103° East 502 578 31,000 484 Climbing Denver Center
Tue 02:51:08 PM 39.4619 -101.2181 119° Southeast 471 542 31,400 484 Climbing Denver Center
Tue 02:52:10 PM 39.3906 -101.0525 119° Southeast 471 542 32,000 581 Climbing Denver Center
Tue 02:53:12 PM 39.3294 -100.9108 119° Southeast 472 543 32,600 484 Climbing Denver Center
Tue 02:54:14 PM 39.2578 -100.7478 120° Southeast 469 540 33,000 195 Climbing Denver Center
Tue 02:55:15 PM 39.1961 -100.6069 119° Southeast 471 542 33,000  Level Denver Center
Tue 02:56:17 PM 39.1214 -100.4389 120° Southeast 482 555 33,000  Level Denver Center
Tue 02:57:19 PM 39.0569 -100.2919 119° Southeast 489 563 33,000  Level Denver Center
Tue 02:58:21 PM 38.9931 -100.1494 120° Southeast 485 558 33,000  Level Denver Center
Tue 02:59:23 PM 38.9231 -99.9925 120° Southeast 491 565 33,000  Level Denver Center
Tue 03:00:25 PM 38.8478 -99.8278 120° Southeast 481 554 33,000  Level Denver Center
Tue 03:01:27 PM 38.7839 -99.6861 120° Southeast 480 552 33,000  Level Denver Center
Tue 03:02:28 PM 38.7097 -99.5222 120° Southeast 476 548 33,000  Level Denver Center
Tue 03:03:53 PM 38.6169 -99.3214 121° Southeast 472 543 33,000  Level Kansas City Center
Tue 03:04:54 PM 38.5517 -99.1783 120° Southeast 469 540 33,000  Level Kansas City Center
Tue 03:05:56 PM 38.4853 -99.0364 121° Southeast 466 536 33,000  Level Kansas City Center
Tue 03:06:57 PM 38.4197 -98.8944 120° Southeast 465 535 33,000  Level Kansas City Center
Tue 03:07:58 PM 38.3564 -98.7528 120° Southeast 461 531 33,000  Level Kansas City Center
Tue 03:08:59 PM 38.2903 -98.6128 121° Southeast 460 529 33,000  Level Kansas City Center
Tue 03:10:03 PM 38.2247 -98.4742 121° Southeast 458 527 33,000  Level Kansas City Center
Tue 03:11:04 PM 38.1583 -98.3336 121° Southeast 462 532 33,000  Level Kansas City Center
Tue 03:12:05 PM 38.0800 -98.1678 121° Southeast 457 526 33,000  Level Kansas City Center
Tue 03:13:06 PM 38.0169 -98.0369 121° Southeast 459 528 33,000  Level Kansas City Center
Tue 03:14:09 PM 37.9531 -97.8969 120° Southeast 460 529 33,000  Level Kansas City Center
Tue 03:15:10 PM 37.8931 -97.7500 117° Southeast 465 535 33,000  Level Kansas City Center
Tue 03:16:11 PM 37.8303 -97.6072 119° Southeast 464 534 33,000  Level Kansas City Center
Tue 03:17:12 PM 37.7614 -97.4464 118° Southeast 459 528 33,000  Level Kansas City Center
Tue 03:18:17 PM 37.7011 -97.3036 118° Southeast 459 528 33,000  Level Kansas City Center
Tue 03:19:18 PM 37.6381 -97.1619 119° Southeast 461 531 33,000  Level Kansas City Center
Tue 03:20:18 PM 37.5767 -97.0197 119° Southeast 462 532 33,000  Level Kansas City Center
Tue 03:21:22 PM 37.5153 -96.8783 119° Southeast 461 531 33,000  Level Kansas City Center
Tue 03:22:23 PM 37.4525 -96.7367 119° Southeast 461 531 33,000  Level Kansas City Center
Tue 03:23:23 PM 37.3761 -96.5644 119° Southeast 468 539 33,000  Level Kansas City Center
Tue 03:24:27 PM 37.3153 -96.4267 119° Southeast 470 541 33,000  Level Kansas City Center
Tue 03:25:27 PM 37.2506 -96.2822 119° Southeast 472 543 33,000  Level Kansas City Center
Tue 03:26:28 PM 37.1858 -96.1369 119° Southeast 474 545 33,000  Level Kansas City Center
Tue 03:27:32 PM 37.1194 -95.9922 120° Southeast 475 547 33,000  Level Kansas City Center
Tue 03:28:32 PM 37.0539 -95.8483 120° Southeast 474 545 33,000  Level Kansas City Center
Tue 03:29:33 PM 36.9742 -95.6753 120° Southeast 474 545 33,000  Level Kansas City Center
Tue 03:30:34 PM 36.9089 -95.5308 119° Southeast 473 544 33,000  Level Kansas City Center
Tue 03:31:38 PM 36.8419 -95.3883 120° Southeast 470 541 33,000  Level Kansas City Center
Tue 03:32:39 PM 36.7753 -95.2431 120° Southeast 474 545 33,000  Level Kansas City Center
Tue 03:33:39 PM 36.7081 -95.0989 120° Southeast 475 547 33,000  Level Kansas City Center
Tue 03:34:43 PM 36.6392 -94.9525 120° Southeast 479 551 33,000  Level Kansas City Center
Tue 03:35:44 PM 36.5708 -94.8086 121° Southeast 477 549 33,000  Level Kansas City Center
Tue 03:36:45 PM 36.5039 -94.6658 120° Southeast 475 547 33,000  Level Kansas City Center
Tue 03:37:45 PM 36.4381 -94.5233 120° Southeast 474 545 33,000  Level Kansas City Center
Tue 03:38:47 PM 36.3708 -94.3803 120° Southeast 475 547 33,000  Level Kansas City Center
Tue 03:39:10 PM 36.3417 -94.3219 122° Southeast 475 547 33,000  Level Memphis Center
Tue 03:40:10 PM 36.2731 -94.1822 121° Southeast 480 552 33,000  Level Memphis Center
Tue 03:41:10 PM 36.1956 -94.0553 127° Southeast 475 547 33,000  Level Memphis Center
Tue 03:42:10 PM 36.1031 -93.9431 136° Southeast 470 541 33,000  Level Memphis Center
Tue 03:43:10 PM 36.0144 -93.8264 133° Southeast 464 534 33,000  Level Memphis Center
Tue 03:44:10 PM 35.9217 -93.7122 135° Southeast 464 534 33,000  Level Memphis Center
Tue 03:45:10 PM 35.8331 -93.5986 134° Southeast 464 534 33,000  Level Memphis Center
Tue 03:46:10 PM 35.7419 -93.4850 135° Southeast 464 534 33,000 -450 Level Memphis Center
Tue 03:47:10 PM 35.6408 -93.3611 135° Southeast 469 540 32,100 -2,000 Descending Memphis Center
Tue 03:48:10 PM 35.5556 -93.2611 136° Southeast 469 540 29,000 -3,050 Descending Memphis Center
Tue 03:49:10 PM 35.4644 -93.1483 135° Southeast 475 547 26,000 -3,000 Descending Memphis Center
Tue 03:50:10 PM 35.3750 -93.0358 134° Southeast 469 540 23,000 -3,350 Descending Memphis Center
Tue 03:51:10 PM 35.2936 -92.9342 134° Southeast 450 518 19,300 -4,396 Descending Memphis Center
Tue 03:51:51 PM 35.2244 -92.8506 135° Southeast 403 464 15,600 -5,100 Descending Memphis Center
Tue 03:52:10 PM 35.2042 -92.8219 131° Southeast 430 495 14,200 -3,900 Descending Memphis Center
Tue 03:52:51 PM 35.1511 -92.7619 137° Southeast 377 434 11,700 -3,600 Descending Memphis Center
Tue 03:53:10 PM 35.1289 -92.7283 129° Southeast 401 461 10,600 -1,855 Descending Memphis Center
Tue 03:53:46 PM 35.0881 -92.6817 137° Southeast 361 415 10,000 -600 Descending Memphis Center
Tue 03:54:10 PM 35.0658 -92.6431 125° Southeast 375 432 10,000 -448 Level Memphis Center
Tue 03:54:53 PM 35.0314 -92.5886 128° Southeast 294 338 9,500 -900 Descending Memphis Center
Tue 03:55:10 PM 35.0194 -92.5581 116° Southeast 328 377 9,100 -1,444 Descending Memphis Center
Tue 03:55:47 PM 34.9931 -92.5142 126° Southeast 291 335 8,200 -1,500 Descending Memphis Center
Tue 03:56:10 PM 34.9728 -92.4756 123° Southeast 309 356 7,600 -1,574 Descending Memphis Center
Tue 03:56:48 PM 34.9422 -92.4269 127° Southeast 294 338 6,600 -1,500 Descending Memphis Center
Tue 03:57:10 PM 34.9303 -92.3936 114° Southeast 296 341 6,100 -1,500 Descending Memphis Center
Tue 03:57:48 PM 34.8956 -92.3422 129° Southeast 288 331 5,100 -1,500 Descending Memphis Center
Tue 03:58:10 PM 34.8878 -92.3089 106° East 291 335 4,600 -896 Descending Memphis Center
Tue 03:58:55 PM 34.8742 -92.2481 105° East 277 319 4,100 -600 Descending Memphis Center
Tue 03:59:10 PM 34.8747 -92.2200 89° East 272 313 4,000 -448 Descending Memphis Center
Tue 04:00:02 PM 34.8611 -92.1514 104° East 246 283 3,600 -462 Descending Memphis Center

Login

Don't have an account? Register now (free) for customized features, flight alerts, and more!